• Join FlightAware (Why Join?)
  • Login
  • US Flag 
02:32AM EDT


 

Airport Tracker/Info


-or-


 

Live Flight TrackerFlight Track Log ✈ UAL395 ✈ 21-Aug-2013 ✈ KIAH - KSAT

Flight Track Log - Related Links

Times and Time Zones

All times are in EDT time to prevent confusion due to time zone crossing. See the UAL395 flight status page for this flight to view local times or setup timezone preferences in your user account.

Time Position Orientation Groundspeed Altitude Reporting Facility
EDT Latitude Longitude Course Direction KTS MPH feet Rate Location/Type
10:53PM 29.9542 -95.3439 270° West 153 176 1,100  Level Houston Center
10:53PM 29.9317 -95.3808 235° Southwest 199 229 2,100 1,860 Climbing Houston Center
10:55PM 29.8897 -95.4600 239° Southwest 239 275 5,000 2,880 Climbing Houston Center
10:56PM 29.8736 -95.5511 258° West 286 329 8,800 3,000 Climbing Houston Center
10:57PM 29.8586 -95.6450 260° West 297 342 11,200 1,800 Climbing Houston Center
10:58PM 29.7667 -95.9877 270° West  Level FlightAware Approximate
10:58PM 29.8408 -95.7625 260° West 369 425 12,500  Level Houston Center
10:59PM 29.8211 -95.8914 260° West 406 467 14,900 2,220 Climbing Houston Center
11:00PM 29.7997 -96.0386 261° West 419 482 17,100 1,860 Climbing Houston Center
11:01PM 29.7800 -96.1764 261° West 434 499 18,800 1,620 Climbing Houston Center
11:02PM 29.7892 -96.3192 274° West 449 517 20,500 1,740 Climbing Houston Center
11:03PM 29.7997 -96.4647 275° West 457 526 22,400 1,920 Climbing Houston Center
11:04PM 29.8097 -96.6075 275° West 453 521 24,500 1,620 Climbing Houston Center
11:05PM 29.8208 -96.7517 275° West 455 524 25,700 -180 Climbing Houston Center
11:06PM 29.8325 -96.8972 275° West 460 529 24,200 -1,920 Descending Houston Center
11:07PM 29.8436 -97.0750 274° West 469 540 21,800 -2,280 Descending Houston Center
11:08PM 29.8544 -97.2228 275° West 469 540 19,600 -1,980 Descending Houston Center
11:09PM 29.8647 -97.3636 275° West 449 517 17,800 -1,560 Descending Houston Center
11:10PM 29.8731 -97.4694 275° West 421 484 16,700 -1,440 Descending Houston Center
11:11PM 29.8828 -97.6367 274° West 410 472 14,900 -1,560 Descending Houston Center
11:12PM 29.8903 -97.7622 274° West 398 458 13,400 -1,320 Descending Houston Center
11:13PM 29.8928 -97.8792 271° West 370 426 12,300 -1,260 Descending Houston Center
11:14PM 29.8456 -97.9864 243° Southwest 345 397 10,900 -1,200 Descending Houston Center
11:15PM 29.8078 -98.0744 244° Southwest 309 356 9,900 -1,320 Descending Houston Center
11:16PM 29.7819 -98.1614 251° West 291 335 8,300 -1,620 Descending Houston Center
11:17PM 29.7619 -98.2503 255° West 289 333 6,700 -1,260 Descending Houston Center
11:18PM 29.7419 -98.3453 256° West 285 328 5,800 -1,200 Descending Houston Center
11:19PM 29.7247 -98.4311 257° West 278 320 4,300 -1,440 Descending Houston Center
11:20PM 29.6936 -98.4961 241° Southwest 259 298 3,100 -780 Descending Houston Center
11:21PM 29.6456 -98.5453 222° Southwest 212 244 2,800 -300 Descending Houston Center
11:22PM 29.6094 -98.5639 204° Southwest 129 148 2,500 -480 Descending Houston Center
11:23PM 29.5786 -98.5322 138° Southeast 124 143 1,800 -660 Descending Houston Center
11:24PM 29.5561 -98.5003 129° Southeast 129 148 1,200 -600 Descending Houston Center